Twin Lakes, Colorado
Current Conditions -  °F | °C
As of 8:53 AM on Thursday 18 Dec 2014 (Local Time) from KLXV Reporting Station
Few Clouds Few Clouds  
Wind Chill:   Ceiling: Unl
Heat Index: 17°   Visibility: 10mi
Dew Point:   Wind: 6mph
Humidity: 71%   Direction: 20°NNE
Pressure: 30.04"   Gusts: NA
Location:  39.08°N, 106.38°W
Report Text: KLXV 181553Z AUTO 02005KT 10SM FEW025 M08/M13 A3004 RMK AO2 SLP174 T10831128
Loading
Personal Weather Stations






























Interactive Weather Map New forecast layout! Learn more

10-Day Weather Forecast

Advertisements
Track Severe Weather on mobile